createdAt,value
2022-11-28T00:00:53.353Z,95.53
2022-11-28T00:01:53.473Z,95.43
2022-11-28T00:02:53.423Z,95.64
2022-11-28T00:03:53.437Z,95.53
2022-11-28T00:04:53.375Z,95.32
2022-11-28T00:05:53.296Z,95.43
2022-11-28T00:06:53.298Z,95.01
2022-11-28T00:07:53.327Z,95.95
2022-11-28T00:08:53.342Z,96.37
2022-11-28T00:09:53.332Z,96.47
2022-11-28T00:10:53.237Z,96.78
2022-11-28T00:11:53.291Z,96.68
2022-11-28T00:12:53.216Z,96.78
2022-11-28T00:13:53.218Z,96.78
2022-11-28T00:14:53.237Z,96.68
2022-11-28T00:15:53.231Z,96.78
2022-11-28T00:16:53.220Z,97.00
2022-11-28T00:17:53.246Z,97.10
2022-11-28T00:18:53.180Z,97.10
2022-11-28T00:19:53.340Z,97.20
2022-11-28T00:20:53.161Z,97.10
2022-11-28T00:21:53.158Z,96.58
2022-11-28T00:22:53.138Z,96.58
2022-11-28T00:23:53.121Z,96.78
2022-11-28T00:24:53.540Z,97.00
2022-11-28T00:25:53.137Z,97.20
2022-11-28T00:26:53.151Z,96.89
2022-11-28T00:27:53.090Z,96.68
2022-11-28T00:28:53.079Z,96.68
2022-11-28T00:29:53.133Z,96.89
2022-11-28T00:30:53.120Z,97.10
2022-11-28T00:31:53.081Z,97.31
2022-11-28T00:32:53.059Z,97.72
2022-11-28T00:33:53.042Z,97.62
2022-11-28T00:34:52.996Z,97.41
2022-11-28T00:35:58.951Z,97.00
2022-11-28T00:36:54.098Z,97.00
2022-11-28T00:37:53.014Z,97.20
2022-11-28T00:38:52.955Z,97.52
2022-11-28T00:39:53.005Z,97.31
2022-11-28T00:40:52.927Z,96.89
2022-11-28T00:41:52.917Z,96.89
2022-11-28T00:42:52.907Z,96.16
2022-11-28T00:43:52.900Z,95.95
2022-11-28T00:44:52.961Z,95.74
2022-11-28T00:45:53.005Z,95.95
2022-11-28T00:46:52.985Z,95.84
2022-11-28T00:47:52.863Z,95.74
2022-11-28T00:48:52.845Z,96.05
2022-11-28T00:49:52.854Z,96.26
2022-11-28T00:50:52.861Z,96.16
2022-11-28T00:51:52.822Z,96.16
2022-11-28T00:52:52.916Z,96.37
2022-11-28T00:53:52.819Z,96.68
2022-11-28T00:54:52.801Z,96.47
2022-11-28T00:55:52.819Z,96.47
2022-11-28T00:56:52.784Z,96.68
2022-11-28T00:57:52.775Z,97.00
2022-11-28T00:58:52.764Z,97.10
2022-11-28T00:59:52.849Z,97.20
2022-11-28T01:00:52.782Z,96.89
2022-11-28T01:01:52.798Z,96.37
2022-11-28T01:02:52.716Z,96.16
2022-11-28T01:03:52.717Z,96.16
2022-11-28T01:04:52.723Z,95.84
2022-11-28T01:05:52.684Z,95.64
2022-11-28T01:06:52.688Z,95.74
2022-11-28T01:07:52.673Z,95.64
2022-11-28T01:08:52.774Z,95.74
2022-11-28T01:09:52.702Z,95.95
2022-11-28T01:10:52.655Z,96.26
2022-11-28T01:11:52.654Z,96.26
2022-11-28T01:12:52.627Z,96.16
2022-11-28T01:13:52.621Z,96.26
2022-11-28T01:14:52.622Z,96.47
2022-11-28T01:15:52.691Z,96.58
2022-11-28T01:16:57.569Z,96.68
2022-11-28T01:17:52.579Z,96.58
2022-11-28T01:18:52.557Z,96.37
2022-11-28T01:19:52.552Z,95.95
2022-11-28T01:20:52.522Z,95.84
2022-11-28T01:21:52.594Z,96.26
2022-11-28T01:22:52.580Z,96.89
2022-11-28T01:23:52.505Z,97.00
2022-11-28T01:24:52.698Z,96.78
2022-11-28T01:25:52.469Z,96.68
2022-11-28T01:26:52.465Z,96.58
2022-11-28T01:27:52.510Z,96.47
2022-11-28T01:28:52.476Z,96.37
2022-11-28T01:29:52.445Z,96.26
2022-11-28T01:30:52.439Z,96.22
2022-11-28T01:31:52.517Z,96.43
2022-11-28T01:32:52.402Z,96.64
2022-11-28T01:33:52.427Z,96.74
2022-11-28T01:34:52.395Z,96.74
2022-11-28T01:35:52.408Z,96.43
2022-11-28T01:36:52.392Z,96.43
2022-11-28T01:37:52.346Z,96.33
2022-11-28T01:38:52.377Z,96.33
2022-11-28T01:39:52.349Z,96.43
2022-11-28T01:40:52.431Z,95.90
2022-11-28T01:41:52.323Z,95.70
2022-11-28T01:42:52.295Z,95.38
2022-11-28T01:43:52.279Z,95.38
2022-11-28T01:44:52.288Z,95.49
2022-11-28T01:45:52.247Z,95.49
2022-11-28T01:46:52.320Z,95.38
2022-11-28T01:47:52.229Z,94.86
2022-11-28T01:48:52.229Z,95.65
2022-11-28T01:49:52.331Z,95.13
2022-11-28T01:50:52.210Z,95.13
2022-11-28T01:51:52.203Z,92.52
2022-11-28T01:52:52.207Z,93.57
2022-11-28T01:53:52.194Z,93.57
2022-11-28T01:54:52.178Z,93.04
2022-11-28T01:55:52.179Z,93.57
2022-11-28T01:56:52.282Z,92.94
2022-11-28T01:57:59.625Z,92.94
2022-11-28T01:58:52.119Z,92.47
2022-11-28T01:59:52.231Z,91.75
2022-11-28T02:00:52.161Z,90.91
2022-11-28T02:01:52.149Z,91.75
2022-11-28T02:02:52.082Z,90.66
2022-11-28T02:03:52.068Z,91.60
2022-11-28T02:04:52.067Z,92.16
2022-11-28T02:05:52.554Z,91.71
2022-11-28T02:06:52.047Z,91.18
2022-11-28T02:07:52.178Z,89.83
2022-11-28T02:08:52.045Z,89.31
2022-11-28T02:09:52.017Z,89.10
2022-11-28T02:10:52.094Z,89.72
2022-11-28T02:11:51.983Z,90.03
2022-11-28T02:12:52.104Z,90.97
2022-11-28T02:13:51.972Z,89.93
2022-11-28T02:14:51.947Z,88.89
2022-11-28T02:15:52.021Z,88.89
2022-11-28T02:16:52.042Z,88.57
2022-11-28T02:17:51.944Z,88.47
2022-11-28T02:18:51.914Z,88.68
2022-11-28T02:19:51.980Z,89.10
2022-11-28T02:20:51.891Z,89.20
2022-11-28T02:21:51.914Z,89.83
2022-11-28T02:22:51.917Z,91.29
2022-11-28T02:23:51.856Z,90.66
2022-11-28T02:24:51.911Z,89.62
2022-11-28T02:25:51.896Z,90.18
2022-11-28T02:26:51.855Z,90.91
2022-11-28T02:27:51.865Z,91.12
2022-11-28T02:28:51.953Z,92.37
2022-11-28T02:29:51.795Z,91.33
2022-11-28T02:30:51.831Z,91.02
2022-11-28T02:31:51.895Z,90.60
2022-11-28T02:32:51.894Z,90.18
2022-11-28T02:33:51.928Z,89.97
2022-11-28T02:34:52.309Z,90.08
2022-11-28T02:35:51.863Z,90.18
2022-11-28T02:36:51.794Z,90.39
2022-11-28T02:37:51.702Z,90.70
2022-11-28T02:38:51.725Z,90.50
2022-11-28T02:39:51.755Z,90.18
2022-11-28T02:40:51.695Z,91.22
2022-11-28T02:41:51.722Z,90.97
2022-11-28T02:42:51.667Z,90.35
2022-11-28T02:43:51.661Z,90.45
2022-11-28T02:44:51.810Z,89.72
2022-11-28T02:45:51.637Z,89.31
2022-11-28T02:46:51.693Z,90.35
2022-11-28T02:47:56.564Z,90.97
2022-11-28T02:48:51.595Z,91.18
2022-11-28T02:49:51.596Z,89.83
2022-11-28T02:50:51.628Z,89.62
2022-11-28T02:51:51.563Z,87.22
2022-11-28T02:52:51.584Z,86.55
2022-11-28T02:53:51.556Z,86.55
2022-11-28T02:54:51.526Z,86.45
2022-11-28T02:55:51.518Z,86.35
2022-11-28T02:56:51.537Z,86.24
2022-11-28T02:57:51.498Z,85.82
2022-11-28T02:58:51.504Z,86.03
2022-11-28T02:59:51.518Z,86.24
2022-11-28T03:00:51.648Z,86.55
2022-11-28T03:01:51.491Z,87.28
2022-11-28T03:02:51.445Z,87.39
2022-11-28T03:03:51.558Z,86.97
2022-11-28T03:04:51.425Z,87.81
2022-11-28T03:05:51.416Z,88.12
2022-11-28T03:06:51.510Z,88.12
2022-11-28T03:07:51.469Z,87.28
2022-11-28T03:08:51.422Z,87.49
2022-11-28T03:09:51.389Z,87.91
2022-11-28T03:10:51.380Z,87.70
2022-11-28T03:11:51.444Z,87.81
2022-11-28T03:12:51.407Z,88.22
2022-11-28T03:13:51.356Z,87.70
2022-11-28T03:14:51.337Z,87.28
2022-11-28T03:15:51.436Z,88.53
2022-11-28T03:16:51.410Z,89.47
2022-11-28T03:18:02.304Z,89.37
2022-11-28T03:18:51.326Z,89.06
2022-11-28T03:19:51.360Z,90.20
2022-11-28T03:20:51.262Z,89.68
2022-11-28T03:21:51.372Z,90.00
2022-11-28T03:22:51.258Z,89.37
2022-11-28T03:23:51.330Z,89.37
2022-11-28T03:24:51.215Z,89.26
2022-11-28T03:25:51.211Z,88.64
2022-11-28T03:26:51.240Z,87.91
2022-11-28T03:27:51.211Z,88.22
2022-11-28T03:28:51.243Z,86.97
2022-11-28T03:29:51.217Z,86.20
2022-11-28T03:30:51.171Z,85.78
2022-11-28T03:31:51.261Z,85.78
2022-11-28T03:32:51.240Z,86.20
2022-11-28T03:33:51.175Z,86.10
2022-11-28T03:34:51.129Z,85.36
2022-11-28T03:35:51.105Z,85.16
2022-11-28T03:36:51.124Z,85.58
2022-11-28T03:37:51.091Z,84.64
2022-11-28T03:38:51.113Z,84.01
2022-11-28T03:39:51.053Z,83.70
2022-11-28T03:40:51.040Z,84.18
2022-11-28T03:41:51.080Z,83.97
2022-11-28T03:42:51.035Z,84.28
2022-11-28T03:43:51.027Z,82.72
2022-11-28T03:44:51.023Z,80.91
2022-11-28T03:45:50.990Z,80.71
2022-11-28T03:46:51.096Z,80.50
2022-11-28T03:47:51.008Z,79.98
2022-11-28T03:48:51.135Z,81.02
2022-11-28T03:49:51.033Z,81.33
2022-11-28T03:50:50.973Z,81.33
2022-11-28T03:51:51.512Z,80.71
2022-11-28T03:52:50.917Z,80.81
2022-11-28T03:53:50.901Z,80.71
2022-11-28T03:54:50.900Z,80.60
2022-11-28T03:55:50.946Z,80.91
2022-11-28T03:56:50.902Z,80.08
2022-11-28T03:57:50.874Z,80.91
2022-11-28T03:58:50.887Z,80.36
2022-11-28T03:59:50.868Z,80.67
2022-11-28T04:00:50.865Z,80.77
2022-11-28T04:01:50.851Z,80.67
2022-11-28T04:02:50.842Z,80.46
2022-11-28T04:03:50.805Z,80.46
2022-11-28T04:04:50.903Z,81.50
2022-11-28T04:05:50.816Z,81.29
2022-11-28T04:06:50.793Z,81.60
2022-11-28T04:07:50.810Z,82.23
2022-11-28T04:08:50.765Z,82.68
2022-11-28T04:09:50.761Z,82.79
2022-11-28T04:10:50.752Z,82.79
2022-11-28T04:11:50.807Z,82.58
2022-11-28T04:12:50.715Z,83.52
2022-11-28T04:13:50.690Z,83.31
2022-11-28T04:14:50.698Z,83.62
2022-11-28T04:15:50.757Z,83.62
2022-11-28T04:16:53.993Z,83.94
2022-11-28T04:17:50.718Z,84.04
2022-11-28T04:18:50.687Z,84.25
2022-11-28T04:19:50.657Z,84.66
2022-11-28T04:20:50.765Z,85.22
2022-11-28T04:21:50.611Z,85.74
2022-11-28T04:22:50.594Z,85.64
2022-11-28T04:23:50.579Z,85.85
2022-11-28T04:24:50.647Z,85.96
2022-11-28T04:25:50.562Z,86.27
2022-11-28T04:26:50.551Z,86.47
2022-11-28T04:27:50.564Z,86.68
2022-11-28T04:28:50.539Z,86.68
2022-11-28T04:29:50.596Z,86.89
2022-11-28T04:30:50.521Z,86.99
2022-11-28T04:31:50.616Z,87.20
2022-11-28T04:32:50.531Z,87.10
2022-11-28T04:33:50.523Z,87.41
2022-11-28T04:34:50.463Z,87.52
2022-11-28T04:35:50.462Z,87.52
2022-11-28T04:36:50.571Z,87.62
2022-11-28T04:37:50.468Z,87.83
2022-11-28T04:38:50.454Z,88.14
2022-11-28T04:39:50.414Z,88.45
2022-11-28T04:40:50.409Z,88.66
2022-11-28T04:41:50.400Z,88.76
2022-11-28T04:42:52.993Z,88.98
2022-11-28T04:43:50.383Z,88.49
2022-11-28T04:44:50.424Z,88.81
2022-11-28T04:45:50.434Z,89.12
2022-11-28T04:46:50.484Z,89.12
2022-11-28T04:47:50.362Z,88.81
2022-11-28T04:48:50.323Z,89.01
2022-11-28T04:49:50.314Z,89.01
2022-11-28T04:50:50.318Z,88.91
2022-11-28T04:51:50.397Z,88.91
2022-11-28T04:52:50.419Z,88.60
2022-11-28T04:53:50.298Z,88.04
2022-11-28T04:54:50.280Z,88.45
2022-11-28T04:55:50.291Z,88.14
2022-11-28T04:56:50.310Z,88.04
2022-11-28T04:57:55.746Z,88.24
2022-11-28T04:58:51.235Z,88.45
2022-11-28T04:59:50.242Z,88.87
2022-11-28T05:00:50.277Z,89.32
2022-11-28T05:01:50.272Z,89.64
2022-11-28T05:02:50.195Z,90.26
2022-11-28T05:03:50.164Z,91.10
2022-11-28T05:04:50.154Z,90.68
2022-11-28T05:05:50.174Z,90.68
2022-11-28T05:06:50.133Z,91.00
2022-11-28T05:07:50.184Z,91.20
2022-11-28T05:08:50.671Z,91.31
2022-11-28T05:09:50.103Z,91.10
2022-11-28T05:10:50.090Z,91.00
2022-11-28T05:11:50.178Z,91.10
2022-11-28T05:12:50.096Z,91.20
2022-11-28T05:13:50.051Z,91.72
2022-11-28T05:14:50.070Z,91.93
2022-11-28T05:15:50.038Z,92.29
2022-11-28T05:16:50.172Z,92.08
2022-11-28T05:17:54.554Z,91.56
2022-11-28T05:18:50.054Z,91.35
2022-11-28T05:19:50.004Z,91.00
2022-11-28T05:20:49.989Z,91.10
2022-11-28T05:21:49.976Z,91.20
2022-11-28T05:22:50.015Z,91.31
2022-11-28T05:23:49.950Z,91.52
2022-11-28T05:24:50.053Z,91.52
2022-11-28T05:25:49.940Z,91.20
2022-11-28T05:26:49.939Z,90.58
2022-11-28T05:27:49.984Z,90.47
2022-11-28T05:28:49.918Z,90.16
2022-11-28T05:29:52.317Z,90.26
2022-11-28T05:30:49.889Z,90.06
2022-11-28T05:31:49.946Z,90.16
2022-11-28T05:32:49.867Z,90.16
2022-11-28T05:33:49.845Z,90.16
2022-11-28T05:34:49.853Z,89.12
2022-11-28T05:35:49.923Z,88.70
2022-11-28T05:36:49.804Z,88.91
2022-11-28T05:37:49.804Z,89.29
2022-11-28T05:38:49.784Z,89.29
2022-11-28T05:39:49.821Z,89.81
2022-11-28T05:40:49.893Z,89.91
2022-11-28T05:41:49.770Z,89.85
2022-11-28T05:42:49.746Z,89.60
2022-11-28T05:43:49.747Z,88.76
2022-11-28T05:44:49.741Z,88.98
2022-11-28T05:45:49.749Z,88.24
2022-11-28T05:46:49.734Z,88.04
2022-11-28T05:47:49.692Z,88.04
2022-11-28T05:48:49.696Z,88.35
2022-11-28T05:49:49.678Z,87.73
2022-11-28T05:50:49.662Z,87.93
2022-11-28T05:51:49.676Z,87.83
2022-11-28T05:52:49.656Z,87.62
2022-11-28T05:53:49.636Z,86.89
2022-11-28T05:54:49.616Z,86.68
2022-11-28T05:55:49.611Z,86.99
2022-11-28T05:56:49.785Z,86.79
2022-11-28T05:57:49.685Z,86.79
2022-11-28T05:58:49.572Z,86.47
2022-11-28T05:59:49.572Z,86.75
2022-11-28T06:00:49.597Z,86.33
2022-11-28T06:01:49.629Z,86.02
2022-11-28T06:02:49.527Z,85.39
2022-11-28T06:03:49.520Z,85.60
2022-11-28T06:04:49.595Z,86.33
2022-11-28T06:05:49.581Z,85.29
2022-11-28T06:06:49.483Z,84.45
2022-11-28T06:07:49.558Z,84.98
2022-11-28T06:08:49.467Z,84.56
2022-11-28T06:09:49.479Z,85.60
2022-11-28T06:10:49.572Z,85.50
2022-11-28T06:11:49.439Z,84.98
2022-11-28T06:12:49.556Z,84.45
2022-11-28T06:13:49.423Z,84.35
2022-11-28T06:14:49.417Z,84.77
2022-11-28T06:15:49.398Z,85.29
2022-11-28T06:16:49.460Z,85.08
2022-11-28T06:17:49.425Z,84.45
2022-11-28T06:18:49.379Z,84.14
2022-11-28T06:19:49.355Z,85.39
2022-11-28T06:20:49.343Z,83.52
2022-11-28T06:21:49.407Z,85.04
2022-11-28T06:22:49.322Z,85.39
2022-11-28T06:23:49.315Z,85.81
2022-11-28T06:24:49.306Z,86.65
2022-11-28T06:25:49.315Z,85.71
2022-11-28T06:26:49.283Z,86.43
2022-11-28T06:27:49.279Z,85.91
2022-11-28T06:28:49.382Z,86.22
2022-11-28T06:29:49.271Z,85.71
2022-11-28T06:30:49.227Z,86.33
2022-11-28T06:31:49.312Z,86.22
2022-11-28T06:32:49.208Z,84.77
2022-11-28T06:33:49.207Z,84.45
2022-11-28T06:34:49.208Z,84.21
2022-11-28T06:35:49.190Z,84.42
2022-11-28T06:36:49.172Z,84.42
2022-11-28T06:37:49.175Z,84.31
2022-11-28T06:38:49.160Z,84.42
2022-11-28T06:39:49.368Z,84.11
2022-11-28T06:40:49.134Z,83.90
2022-11-28T06:41:49.138Z,83.69
2022-11-28T06:42:49.113Z,83.86
2022-11-28T06:43:49.100Z,83.65
2022-11-28T06:44:49.197Z,82.71
2022-11-28T06:45:49.172Z,83.34
2022-11-28T06:46:49.082Z,83.23
2022-11-28T06:47:49.147Z,81.77
2022-11-28T06:48:49.061Z,81.88
2022-11-28T06:49:49.066Z,83.44
2022-11-28T06:50:49.030Z,81.98
2022-11-28T06:51:49.036Z,82.61
2022-11-28T06:52:49.015Z,82.51
2022-11-28T06:53:49.046Z,82.40
2022-11-28T06:54:48.998Z,82.51
2022-11-28T06:55:48.977Z,81.67
2022-11-28T06:56:48.965Z,81.77
2022-11-28T06:57:49.047Z,82.20
2022-11-28T06:58:56.493Z,81.26
2022-11-28T06:59:48.934Z,81.88
2022-11-28T07:00:49.114Z,81.88
2022-11-28T07:01:48.970Z,82.51
2022-11-28T07:02:49.016Z,82.20
2022-11-28T07:03:48.889Z,82.51
2022-11-28T07:04:48.879Z,83.13
2022-11-28T07:05:48.870Z,83.23
2022-11-28T07:06:48.865Z,83.75
2022-11-28T07:07:54.276Z,83.65
2022-11-28T07:08:49.899Z,83.86
2022-11-28T07:09:48.829Z,82.61
2022-11-28T07:10:48.851Z,82.30
2022-11-28T07:11:48.810Z,82.20
2022-11-28T07:12:48.807Z,81.67
2022-11-28T07:13:48.858Z,81.67
2022-11-28T07:14:48.860Z,81.63
2022-11-28T07:15:48.771Z,82.40
2022-11-28T07:16:48.923Z,81.98
2022-11-28T07:17:48.748Z,82.26
2022-11-28T07:18:48.738Z,82.68
2022-11-28T07:19:54.624Z,82.57
2022-11-28T07:20:49.714Z,82.26
2022-11-28T07:21:48.711Z,83.40
2022-11-28T07:22:48.706Z,84.03
2022-11-28T07:23:48.682Z,84.23
2022-11-28T07:24:49.603Z,83.92
2022-11-28T07:25:48.713Z,84.13
2022-11-28T07:26:48.703Z,83.82
2022-11-28T07:27:48.643Z,83.82
2022-11-28T07:28:48.645Z,83.72
2022-11-28T07:29:48.635Z,82.99
2022-11-28T07:30:48.633Z,82.36
2022-11-28T07:31:48.660Z,82.15
2022-11-28T07:32:49.230Z,82.36
2022-11-28T07:33:48.617Z,83.61
2022-11-28T07:34:50.203Z,83.09
2022-11-28T07:35:48.555Z,82.89
2022-11-28T07:36:48.602Z,82.57
2022-11-28T07:37:48.538Z,82.05
2022-11-28T07:38:48.533Z,82.46
2022-11-28T07:39:48.515Z,82.68
2022-11-28T07:40:48.511Z,82.26
2022-11-28T07:41:48.568Z,82.15
2022-11-28T07:42:48.553Z,82.43
2022-11-28T07:43:48.492Z,82.12
2022-11-28T07:44:48.471Z,81.91
2022-11-28T07:46:00.528Z,81.49
2022-11-28T07:46:49.566Z,80.15
2022-11-28T07:47:48.494Z,80.66
2022-11-28T07:48:48.537Z,79.72
2022-11-28T07:49:48.442Z,80.83
2022-11-28T07:50:48.436Z,81.46
2022-11-28T07:51:48.445Z,81.56
2022-11-28T07:52:48.426Z,81.46
2022-11-28T07:53:48.402Z,82.39
2022-11-28T07:54:48.414Z,80.94
2022-11-28T07:55:48.372Z,80.63
2022-11-28T07:57:49.369Z,79.69
2022-11-28T07:58:48.405Z,79.97
2022-11-28T07:59:48.321Z,80.07
2022-11-28T08:00:48.352Z,79.76
2022-11-28T08:01:48.368Z,80.18
2022-11-28T08:02:48.281Z,79.97
2022-11-28T08:03:48.289Z,80.59
2022-11-28T08:04:52.751Z,80.59
2022-11-28T08:05:49.274Z,80.80
2022-11-28T08:06:48.241Z,80.69
2022-11-28T08:07:48.285Z,80.69
2022-11-28T08:08:48.260Z,81.01
2022-11-28T08:09:48.231Z,81.28
2022-11-28T08:10:48.232Z,81.28
2022-11-28T08:11:48.189Z,81.59
2022-11-28T08:12:48.182Z,81.59
2022-11-28T08:13:48.213Z,81.07
2022-11-28T08:14:48.184Z,80.66
2022-11-28T08:15:48.141Z,79.20
2022-11-28T08:16:48.221Z,80.10
2022-11-28T08:17:48.151Z,79.38
2022-11-28T08:18:48.109Z,80.00
2022-11-28T08:19:48.132Z,79.58
2022-11-28T08:20:48.119Z,78.86
2022-11-28T08:21:48.078Z,78.44
2022-11-28T08:22:48.071Z,77.51
2022-11-28T08:23:48.068Z,76.57
2022-11-28T08:24:48.056Z,76.16
2022-11-28T08:25:48.073Z,76.37
2022-11-28T08:26:48.022Z,76.54
2022-11-28T08:27:48.019Z,76.33
2022-11-28T08:28:48.004Z,76.43
2022-11-28T08:29:51.963Z,77.68
2022-11-28T08:30:49.131Z,77.09
2022-11-28T08:31:47.965Z,77.40
2022-11-28T08:32:47.959Z,78.75
2022-11-28T08:33:47.957Z,78.30
2022-11-28T08:34:47.948Z,78.30
2022-11-28T08:35:47.947Z,78.72
2022-11-28T08:36:47.968Z,79.13
2022-11-28T08:37:47.906Z,79.13
2022-11-28T08:39:03.461Z,79.34
2022-11-28T08:39:48.890Z,79.55
2022-11-28T08:40:47.880Z,79.75
2022-11-28T08:41:47.905Z,79.65
2022-11-28T08:42:47.865Z,80.37
2022-11-28T08:43:47.853Z,79.96
2022-11-28T08:44:47.867Z,79.55
2022-11-28T08:45:47.868Z,79.65
2022-11-28T08:46:47.828Z,79.13
2022-11-28T08:47:47.905Z,78.61
2022-11-28T08:48:47.797Z,79.03
2022-11-28T08:49:47.777Z,79.85
2022-11-28T08:50:48.228Z,80.06
2022-11-28T08:51:47.776Z,79.75
2022-11-28T08:52:47.797Z,80.16
2022-11-28T08:53:49.464Z,79.96
2022-11-28T08:54:47.758Z,80.27
2022-11-28T08:55:47.719Z,80.27
2022-11-28T08:56:47.750Z,80.27
2022-11-28T08:57:47.725Z,79.96
2022-11-28T08:58:47.691Z,79.55
2022-11-28T08:59:47.701Z,80.02
2022-11-28T09:00:47.680Z,80.02
2022-11-28T09:01:47.751Z,79.20
2022-11-28T09:02:47.657Z,79.51
2022-11-28T09:03:47.680Z,79.51
2022-11-28T09:04:47.698Z,79.20
2022-11-28T09:05:47.620Z,79.41
2022-11-28T09:06:47.604Z,78.96
2022-11-28T09:07:47.667Z,78.85
2022-11-28T09:08:47.602Z,78.64
2022-11-28T09:09:48.112Z,78.44
2022-11-28T09:10:47.604Z,78.85
2022-11-28T09:11:47.545Z,78.75
2022-11-28T09:12:47.542Z,79.47
2022-11-28T09:13:47.529Z,79.44
2022-11-28T09:14:47.525Z,78.81
2022-11-28T09:15:51.250Z,78.09
2022-11-28T09:16:48.759Z,77.67
2022-11-28T09:17:47.578Z,77.98
2022-11-28T09:18:47.491Z,77.98
2022-11-28T09:19:47.510Z,77.98
2022-11-28T09:20:47.527Z,78.05
2022-11-28T09:21:47.448Z,77.64
2022-11-28T09:22:47.480Z,77.84
2022-11-28T09:23:47.513Z,77.84
2022-11-28T09:24:47.442Z,77.81
2022-11-28T09:25:47.448Z,77.09
2022-11-28T09:26:47.501Z,76.57
2022-11-28T09:27:47.443Z,77.50
2022-11-28T09:28:47.376Z,76.74
2022-11-28T09:29:47.368Z,76.53
2022-11-28T09:30:47.442Z,75.91
2022-11-28T09:31:47.829Z,75.98
2022-11-28T09:32:47.336Z,76.09
2022-11-28T09:33:47.336Z,75.67
2022-11-28T09:34:47.342Z,75.78
2022-11-28T09:35:47.327Z,74.95
2022-11-28T09:36:47.334Z,74.33
2022-11-28T09:37:47.317Z,73.88
2022-11-28T09:38:47.271Z,73.05
2022-11-28T09:40:11.587Z,72.95
2022-11-28T09:40:48.290Z,72.64
2022-11-28T09:41:47.238Z,72.22
2022-11-28T09:42:47.255Z,71.57
2022-11-28T09:43:52.039Z,71.37
2022-11-28T09:44:48.208Z,72.19
2022-11-28T09:45:47.211Z,71.78
2022-11-28T09:46:47.372Z,71.06
2022-11-28T09:47:47.216Z,70.03
2022-11-28T09:48:47.182Z,70.33
2022-11-28T09:49:47.619Z,70.61
2022-11-28T09:50:47.170Z,70.30
2022-11-28T09:51:47.128Z,69.89
2022-11-28T09:52:47.147Z,70.40
2022-11-28T09:53:47.109Z,69.99
2022-11-28T09:54:47.143Z,69.99
2022-11-28T09:55:47.086Z,70.20
2022-11-28T09:56:47.100Z,69.89
2022-11-28T09:57:47.152Z,70.30
2022-11-28T09:58:47.056Z,70.40
2022-11-28T09:59:47.047Z,70.30
2022-11-28T10:00:50.250Z,69.85
2022-11-28T10:01:48.034Z,69.96
2022-11-28T10:02:47.004Z,69.65
2022-11-28T10:03:47.094Z,69.85
2022-11-28T10:04:47.027Z,69.51
2022-11-28T10:05:47.034Z,69.82
2022-11-28T10:06:46.968Z,69.62
2022-11-28T10:07:49.923Z,69.41
2022-11-28T10:08:47.958Z,69.62
2022-11-28T10:09:46.934Z,69.51
2022-11-28T10:10:46.930Z,69.72
2022-11-28T10:11:47.008Z,69.10
2022-11-28T10:12:46.941Z,68.59
2022-11-28T10:14:07.362Z,69.31
2022-11-28T10:14:47.921Z,69.38
2022-11-28T10:15:46.905Z,69.48
2022-11-28T10:16:47.062Z,68.86
2022-11-28T10:17:46.970Z,68.55
2022-11-28T10:18:46.847Z,68.66
2022-11-28T10:19:54.278Z,68.73
2022-11-28T10:20:47.836Z,68.42
2022-11-28T10:21:46.861Z,68.11
2022-11-28T10:22:46.866Z,68.11
2022-11-28T10:23:46.783Z,68.32
2022-11-28T10:24:46.809Z,68.21
2022-11-28T10:25:46.766Z,68.55
2022-11-28T10:26:46.823Z,69.27
2022-11-28T10:27:46.746Z,68.93
2022-11-28T10:28:46.759Z,68.42
2022-11-28T10:29:46.724Z,68.52
2022-11-28T10:30:46.846Z,68.73
2022-11-28T10:31:46.733Z,69.14
2022-11-28T10:32:46.716Z,68.62
2022-11-28T10:33:46.760Z,68.93
2022-11-28T10:34:46.686Z,69.35
2022-11-28T10:35:46.710Z,69.65
2022-11-28T10:36:46.647Z,68.32
2022-11-28T10:37:46.647Z,67.97
2022-11-28T10:38:46.626Z,68.15
2022-11-28T10:39:46.640Z,67.22
2022-11-28T10:40:46.603Z,67.12
2022-11-28T10:41:46.587Z,67.02
2022-11-28T10:42:46.592Z,66.99
2022-11-28T10:43:46.615Z,67.50
2022-11-28T10:44:46.627Z,67.50
2022-11-28T10:45:46.633Z,67.09
2022-11-28T10:46:46.571Z,67.30
2022-11-28T10:47:46.726Z,67.81
2022-11-28T10:48:46.518Z,67.30
2022-11-28T10:49:46.508Z,66.34
2022-11-28T10:50:46.532Z,66.27
2022-11-28T10:51:46.505Z,66.88
2022-11-28T10:52:46.474Z,67.81
2022-11-28T10:53:46.461Z,66.88
2022-11-28T10:54:46.451Z,66.13
2022-11-28T10:55:46.442Z,65.92
2022-11-28T10:56:46.468Z,65.92
2022-11-28T10:57:46.416Z,65.31
2022-11-28T10:58:46.504Z,65.41
2022-11-28T10:59:46.402Z,65.83
2022-11-28T11:00:46.427Z,65.31
2022-11-28T11:01:50.115Z,65.38
2022-11-28T11:02:46.387Z,65.11
2022-11-28T11:03:46.353Z,65.31
2022-11-28T11:04:46.423Z,65.59
2022-11-28T11:05:46.336Z,66.10
2022-11-28T11:07:06.838Z,65.17
2022-11-28T11:07:47.389Z,65.38
2022-11-28T11:08:46.340Z,64.97
2022-11-28T11:09:46.513Z,65.80
2022-11-28T11:10:46.281Z,64.73
2022-11-28T11:11:46.312Z,64.63
2022-11-28T11:12:46.256Z,65.48
2022-11-28T11:13:46.253Z,65.59
2022-11-28T11:14:46.281Z,66.07
2022-11-28T11:15:46.365Z,65.86
2022-11-28T11:16:46.368Z,65.45
2022-11-28T11:17:46.275Z,66.17
2022-11-28T11:18:46.193Z,66.07
2022-11-28T11:19:46.285Z,65.25
2022-11-28T11:20:46.184Z,66.35
2022-11-28T11:21:46.167Z,66.55
2022-11-28T11:22:46.265Z,66.79
2022-11-28T11:23:46.142Z,64.84
2022-11-28T11:24:46.139Z,66.79
2022-11-28T11:25:46.123Z,67.82
2022-11-28T11:26:46.145Z,67.30
2022-11-28T11:27:46.113Z,65.05
2022-11-28T11:28:46.110Z,65.25
2022-11-28T11:29:49.269Z,65.45
2022-11-28T11:30:47.131Z,65.14
2022-11-28T11:31:46.119Z,66.28
2022-11-28T11:32:51.112Z,65.32
2022-11-28T11:33:47.033Z,64.91
2022-11-28T11:34:46.035Z,64.50
2022-11-28T11:35:46.075Z,64.29
2022-11-28T11:36:46.026Z,65.42
2022-11-28T11:37:45.996Z,63.68
2022-11-28T11:38:45.988Z,63.47
2022-11-28T11:39:45.983Z,63.27
2022-11-28T11:40:45.968Z,64.19
2022-11-28T11:41:45.986Z,64.09
2022-11-28T11:42:45.976Z,64.40
2022-11-28T11:43:45.940Z,64.91
2022-11-28T11:44:45.945Z,63.65
2022-11-28T11:45:51.170Z,63.89
2022-11-28T11:46:47.251Z,63.98
2022-11-28T11:47:45.961Z,62.41
2022-11-28T11:48:45.947Z,62.93
2022-11-28T11:49:46.214Z,63.75
2022-11-28T11:50:45.847Z,61.39
2022-11-28T11:51:45.840Z,62.59
2022-11-28T11:52:45.872Z,60.95
2022-11-28T11:53:45.873Z,61.67
2022-11-28T11:54:45.999Z,61.54
2022-11-28T11:55:45.850Z,59.59
2022-11-28T11:56:45.898Z,60.92
2022-11-28T11:57:45.781Z,61.23
2022-11-28T11:58:46.026Z,60.82
2022-11-28T11:59:53.323Z,60.10
2022-11-28T12:00:45.776Z,58.12
2022-11-28T12:01:45.750Z,57.43
2022-11-28T12:02:45.849Z,59.25
2022-11-28T12:03:45.763Z,58.33
2022-11-28T12:04:49.047Z,57.61
2022-11-28T12:06:12.752Z,57.89
2022-11-28T12:06:46.683Z,58.30
2022-11-28T12:07:45.713Z,58.00
2022-11-28T12:08:45.707Z,57.18
2022-11-28T12:09:46.130Z,58.00
2022-11-28T12:10:45.634Z,57.87
2022-11-28T12:12:46.615Z,56.84
2022-11-28T12:13:45.685Z,57.25
2022-11-28T12:14:46.046Z,56.30
2022-11-28T12:15:45.671Z,55.18
2022-11-28T12:16:45.822Z,53.23
2022-11-28T12:18:21.246Z,53.13
2022-11-28T12:18:45.573Z,52.42
2022-11-28T12:19:45.606Z,50.88
2022-11-28T12:20:45.589Z,52.00
2022-11-28T12:21:45.629Z,51.18
2022-11-28T12:22:45.526Z,52.00
2022-11-28T12:23:45.509Z,49.52
2022-11-28T12:24:45.545Z,51.39
2022-11-28T12:25:45.637Z,49.96
2022-11-28T12:26:45.677Z,52.42
2022-11-28T12:27:45.451Z,52.00
2022-11-28T12:28:45.439Z,52.62
2022-11-28T12:29:45.885Z,52.31
2022-11-28T12:30:45.565Z,53.54
2022-11-28T12:31:45.741Z,53.64
2022-11-28T12:32:45.490Z,52.11
2022-11-28T12:33:45.397Z,48.63
2022-11-28T12:34:45.468Z,49.24
2022-11-28T12:35:45.698Z,50.75
2022-11-28T12:36:45.506Z,50.47
2022-11-28T12:38:09.747Z,50.29
2022-11-28T12:38:46.343Z,49.37
2022-11-28T12:39:45.977Z,50.09
2022-11-28T12:40:45.438Z,50.52
2022-11-28T12:41:45.422Z,50.62
2022-11-28T12:42:45.301Z,53.18
2022-11-28T12:43:45.361Z,52.54
2022-11-28T12:44:45.432Z,53.05
2022-11-28T12:45:45.403Z,52.64
2022-11-28T12:46:45.430Z,50.42
2022-11-28T12:47:45.558Z,50.23
2022-11-28T12:48:51.641Z,51.46
2022-11-28T12:49:46.829Z,53.59
2022-11-28T12:50:45.248Z,49.80
2022-11-28T12:51:45.380Z,49.90
2022-11-28T12:52:45.254Z,49.18
2022-11-28T12:53:45.248Z,51.23
2022-11-28T12:54:45.458Z,49.31